Time;durP1;ratioP1;P1;durP2;ratioP2;P2;SDS_P1;SDS_P2;PMS_P1;PMS_P2;Temp;Humidity;BMP_temperature;BMP_pressure;BME280_temperature;BME280_humidity;BME280_pressure;Samples;Min_cycle;Max_cycle;Signal;HPM_P1;HPM_P2
2023/07/22 00:02:18;;;;;;;6.23;5.57;;;;;;;15.08;90.28;100191.88;4963619;28;20304;-80
2023/07/22 00:04:45;;;;;;;5.83;5.43;;;;;;;15.15;90.30;100191.63;4959670;28;20307;-78
2023/07/22 00:07:12;;;;;;;6.43;5.93;;;;;;;14.96;90.03;100205.50;4960947;28;20623;-79
2023/07/22 00:09:39;;;;;;;7.00;6.50;;;;;;;15.00;90.31;100191.31;4962332;28;20235;-81
2023/07/22 00:12:06;;;;;;;6.47;6.07;;;;;;;15.05;90.16;100191.16;4958272;28;20692;-79
2023/07/22 00:14:33;;;;;;;6.87;6.37;;;;;;;15.14;89.84;100203.06;4956135;28;20669;-78
2023/07/22 00:17:00;;;;;;;6.13;5.67;;;;;;;15.17;89.78;100216.94;4956103;28;20225;-79
2023/07/22 00:19:26;;;;;;;7.10;6.40;;;;;;;15.07;89.36;100221.72;4955761;28;20296;-79
2023/07/22 00:21:53;;;;;;;7.87;6.70;;;;;;;15.05;89.78;100223.56;4955684;28;20291;-79
2023/07/22 00:24:19;;;;;;;7.23;6.47;;;;;;;15.11;90.05;100208.44;4963429;28;20209;-79
2023/07/22 00:26:45;;;;;;;6.53;6.03;;;;;;;15.11;90.33;100209.31;4956201;28;20301;-79
2023/07/22 00:29:12;;;;;;;7.67;7.07;;;;;;;15.08;90.74;100193.63;4964082;28;20282;-80
2023/07/22 00:31:41;;;;;;;7.53;6.93;;;;;;;15.09;91.01;100193.59;4956307;28;20223;-78
2023/07/22 00:34:08;;;;;;;7.53;6.83;;;;;;;15.05;91.22;100191.16;4955469;28;20233;-78
2023/07/22 00:36:35;;;;;;;7.37;6.77;;;;;;;15.03;91.94;100179.84;4964179;28;20211;-79
2023/07/22 00:39:02;;;;;;;7.93;7.33;;;;;;;15.02;91.99;100172.88;4955259;28;20269;-78
2023/07/22 00:41:28;;;;;;;8.23;7.53;;;;;;;14.89;92.63;100168.13;4955887;28;20691;-79
2023/07/22 00:43:55;;;;;;;8.23;7.57;;;;;;;14.83;92.89;100157.03;4955737;28;20568;-80
2023/07/22 00:46:22;;;;;;;9.03;8.33;;;;;;;14.69;94.09;100134.78;4955692;28;20378;-79
2023/07/22 00:48:51;;;;;;;8.60;7.90;;;;;;;14.55;95.46;100105.56;4955765;28;20228;-80
2023/07/22 00:51:19;;;;;;;9.37;8.67;;;;;;;14.44;95.59;100100.75;4955891;28;20266;-79
2023/07/22 00:53:45;;;;;;;9.07;8.27;;;;;;;14.51;96.28;100080.34;4955302;28;20588;-78
2023/07/22 00:56:11;;;;;;;8.43;7.77;;;;;;;14.66;95.50;100082.34;4955745;28;20709;-78
2023/07/22 00:58:38;;;;;;;8.60;7.93;;;;;;;14.59;95.07;100099.31;4955111;28;20293;-79
2023/07/22 01:01:04;;;;;;;8.67;7.97;;;;;;;14.47;95.47;100094.53;4963108;28;20204;-79
2023/07/22 01:03:31;;;;;;;9.30;8.50;;;;;;;14.58;95.44;100089.72;4955087;28;20214;-78
2023/07/22 01:06:00;;;;;;;9.67;8.77;;;;;;;14.21;96.18;100095.53;4963849;28;20643;-79
2023/07/22 01:08:27;;;;;;;9.67;8.83;;;;;;;14.40;95.94;100077.31;4955011;28;20285;-79
2023/07/22 01:10:54;;;;;;;9.13;8.30;;;;;;;14.53;95.39;100091.66;4955245;28;20264;-78
2023/07/22 01:13:20;;;;;;;9.03;8.43;;;;;;;14.32;95.01;100109.13;4955192;28;20650;-79
2023/07/22 01:15:48;;;;;;;8.83;8.07;;;;;;;14.30;94.79;100105.69;4955016;28;20214;-79
2023/07/22 01:18:15;;;;;;;8.30;7.60;;;;;;;14.42;94.70;100105.19;4954797;28;20267;-78
2023/07/22 01:20:42;;;;;;;8.27;7.57;;;;;;;14.21;95.33;100099.06;4955523;28;20245;-78
2023/07/22 01:23:10;;;;;;;9.57;8.67;;;;;;;14.24;95.53;100100.69;4955381;28;20218;-79
2023/07/22 01:25:37;;;;;;;10.00;9.10;;;;;;;14.39;95.42;100110.59;4954766;28;20209;-79
2023/07/22 01:28:04;;;;;;;9.63;8.73;;;;;;;14.49;94.61;100118.97;4955073;28;20256;-79
2023/07/22 01:30:30;;;;;;;9.17;8.37;;;;;;;14.29;94.13;100133.72;4954759;28;20213;-79
2023/07/22 01:32:57;;;;;;;9.33;8.00;;;;;;;14.46;93.92;100133.03;4954722;28;20208;-79
2023/07/22 01:35:23;;;;;;;9.67;8.80;;;;;;;14.32;94.23;100142.41;4955090;28;20227;-79
2023/07/22 01:37:50;;;;;;;9.37;8.57;;;;;;;14.39;93.55;100146.47;4954286;28;20720;-79
2023/07/22 01:40:18;;;;;;;8.50;7.70;;;;;;;14.25;93.45;100155.78;4954842;28;20259;-78
2023/07/22 01:42:44;;;;;;;8.90;8.10;;;;;;;14.42;93.48;100149.00;4954896;28;20220;-79
2023/07/22 01:45:11;;;;;;;8.60;7.77;;;;;;;14.42;92.75;100157.72;4954953;28;20205;-79
2023/07/22 01:47:39;;;;;;;8.60;7.80;;;;;;;14.48;92.48;100170.59;4954993;28;20626;-80
2023/07/22 01:50:06;;;;;;;9.03;8.10;;;;;;;14.46;92.03;100179.47;4954948;28;20211;-79
2023/07/22 01:52:32;;;;;;;8.80;7.90;;;;;;;14.50;92.14;100179.28;4955029;28;20664;-79
2023/07/22 01:54:59;;;;;;;8.40;7.50;;;;;;;14.48;91.75;100186.38;4956172;28;20217;-78
2023/07/22 01:57:27;;;;;;;8.40;7.70;;;;;;;14.54;91.41;100190.53;4955351;28;20377;-78
2023/07/22 01:59:53;;;;;;;8.43;7.27;;;;;;;14.59;90.96;100207.00;4955695;28;20703;-78
2023/07/22 02:02:20;;;;;;;7.83;7.13;;;;;;;14.58;90.68;100215.78;4955992;28;20201;-78
2023/07/22 02:04:47;;;;;;;7.90;7.10;;;;;;;14.59;90.44;100214.88;4956061;28;20213;-78
2023/07/22 02:07:13;;;;;;;6.77;6.13;;;;;;;14.53;91.04;100204.59;4957558;28;20211;-78
2023/07/22 02:09:40;;;;;;;11.03;6.87;;;;;;;14.50;91.30;100202.06;4961586;28;20233;-79
2023/07/22 02:12:08;;;;;;;7.60;6.80;;;;;;;14.49;91.03;100206.47;4955528;28;20264;-78
2023/07/22 02:14:36;;;;;;;6.57;5.93;;;;;;;14.49;91.13;100208.25;4956765;28;20217;-79
2023/07/22 02:17:03;;;;;;;7.27;6.60;;;;;;;14.33;91.19;100212.38;4956282;28;20220;-78
2023/07/22 02:19:30;;;;;;;7.40;6.70;;;;;;;14.38;91.45;100205.19;4956559;28;20326;-78
2023/07/22 02:21:56;;;;;;;7.20;6.17;;;;;;;14.42;91.56;100210.25;4956779;28;20220;-80
2023/07/22 02:24:23;;;;;;;6.23;5.73;;;;;;;14.44;92.17;100205.78;4960492;28;20230;-78
2023/07/22 02:26:49;;;;;;;7.20;6.50;;;;;;;14.41;92.13;100195.41;4960777;28;20210;-79
2023/07/22 02:29:16;;;;;;;6.93;5.90;;;;;;;14.38;92.90;100182.41;4960744;28;20308;-79
2023/07/22 02:31:44;;;;;;;8.13;7.17;;;;;;;14.42;91.65;100199.75;4961021;28;20682;-79
2023/07/22 02:34:10;;;;;;;7.57;6.77;;;;;;;14.44;91.47;100208.41;4960809;28;20267;-79
2023/07/22 02:36:37;;;;;;;8.17;7.37;;;;;;;14.40;91.97;100205.97;4961278;28;20306;-78
2023/07/22 02:39:03;;;;;;;7.50;6.90;;;;;;;14.42;91.48;100206.78;4968901;28;20232;-79
2023/07/22 02:41:30;;;;;;;6.93;6.43;;;;;;;14.40;91.84;100204.19;4961685;28;20248;-79
2023/07/22 02:43:57;;;;;;;7.67;6.97;;;;;;;14.41;92.20;100197.16;4961140;28;20579;-79
2023/07/22 02:46:24;;;;;;;7.83;6.73;;;;;;;14.41;91.81;100205.03;4952952;28;20217;-79
2023/07/22 02:48:52;;;;;;;6.90;6.40;;;;;;;14.41;91.74;100211.19;4961734;28;20222;-80
2023/07/22 02:51:19;;;;;;;8.33;7.53;;;;;;;14.42;91.39;100218.13;4961390;28;20217;-79
2023/07/22 02:53:46;;;;;;;7.30;6.67;;;;;;;14.41;91.35;100226.06;4960133;28;20209;-79
2023/07/22 02:56:13;;;;;;;7.43;6.73;;;;;;;14.40;90.87;100225.22;4969735;28;20212;-78
2023/07/22 02:58:41;;;;;;;7.53;6.83;;;;;;;14.38;90.56;100240.16;4961397;28;20232;-79
2023/07/22 03:01:08;;;;;;;10.33;8.10;;;;;;;14.38;90.73;100241.94;4961016;28;20308;-79
2023/07/22 03:03:35;;;;;;;7.90;7.10;;;;;;;14.33;90.68;100246.50;4960768;28;20211;-79
2023/07/22 03:06:04;;;;;;;8.10;7.30;;;;;;;14.31;90.93;100249.22;4961418;28;20206;-79
2023/07/22 03:08:31;;;;;;;7.70;6.90;;;;;;;14.30;90.92;100245.69;4961103;28;20248;-78
2023/07/22 03:10:58;;;;;;;7.77;7.07;;;;;;;14.27;90.63;100250.22;4961248;28;20218;-79
2023/07/22 03:13:24;;;;;;;7.20;6.60;;;;;;;14.27;91.09;100248.47;4961148;28;20209;-79
2023/07/22 03:15:51;;;;;;;7.30;6.60;;;;;;;14.25;91.52;100234.53;4967442;28;20208;-79
2023/07/22 03:18:17;;;;;;;7.60;6.90;;;;;;;14.30;90.34;100248.31;4959482;28;20237;-79
2023/07/22 03:20:43;;;;;;;6.93;6.23;;;;;;;14.28;90.81;100251.94;4959883;28;20239;-79
2023/07/22 03:23:11;;;;;;;7.70;7.00;;;;;;;14.26;90.95;100253.75;4960274;28;20247;-79
2023/07/22 03:25:38;;;;;;;6.77;5.77;;;;;;;14.19;91.65;100240.03;4960584;28;20212;-78
2023/07/22 03:28:06;;;;;;;6.83;6.17;;;;;;;14.22;91.58;100234.63;4960044;28;20233;-79
2023/07/22 03:30:34;;;;;;;7.30;6.60;;;;;;;14.20;91.56;100238.25;4960243;28;20212;-79
2023/07/22 03:33:01;;;;;;;7.63;6.30;;;;;;;14.14;92.02;100230.59;4960303;28;20236;-78
2023/07/22 03:35:28;;;;;;;8.13;6.60;;;;;;;14.18;91.55;100237.44;4959679;28;20217;-79
2023/07/22 03:37:54;;;;;;;7.57;6.00;;;;;;;14.10;92.15;100233.31;4959550;28;20243;-79
2023/07/22 03:40:28;;;;;;;7.60;6.90;;;;;;;14.09;91.85;100231.63;4960306;28;20568;-78
2023/07/22 03:42:56;;;;;;;6.90;6.30;;;;;;;14.07;92.80;100222.06;4968190;28;20212;-79
2023/07/22 03:45:23;;;;;;;6.40;5.80;;;;;;;14.05;92.17;100221.28;4968287;28;20220;-79
2023/07/22 03:47:52;;;;;;;8.97;6.90;;;;;;;14.03;92.95;100223.09;4959321;28;20719;-79
2023/07/22 03:50:18;;;;;;;6.90;6.20;;;;;;;14.00;92.77;100221.44;4960571;28;20263;-80
2023/07/22 03:52:45;;;;;;;7.87;6.57;;;;;;;13.98;93.17;100220.66;4960433;28;20205;-78
2023/07/22 03:55:11;;;;;;;6.23;5.63;;;;;;;14.02;92.56;100216.16;4959559;28;20205;-79
2023/07/22 03:57:39;;;;;;;7.10;6.40;;;;;;;14.01;92.33;100227.53;4960453;28;20285;-78
2023/07/22 04:00:09;;;;;;;7.03;6.13;;;;;;;14.03;92.20;100230.97;4960460;28;20272;-78
2023/07/22 04:02:35;;;;;;;7.13;6.40;;;;;;;14.00;92.36;100220.59;4960416;28;20209;-79
2023/07/22 04:05:02;;;;;;;6.63;5.97;;;;;;;14.01;92.93;100212.69;4960774;28;20210;-79
2023/07/22 04:07:28;;;;;;;6.90;6.30;;;;;;;14.00;92.52;100220.59;4960318;28;20212;-79
2023/07/22 04:09:55;;;;;;;6.87;6.23;;;;;;;13.99;92.80;100218.88;4960546;28;20197;-78
2023/07/22 04:12:21;;;;;;;6.93;6.30;;;;;;;14.02;92.57;100217.00;4959995;28;20216;-79
2023/07/22 04:14:49;;;;;;;6.40;5.80;;;;;;;14.06;92.68;100225.63;4958916;28;20696;-78
2023/07/22 04:17:16;;;;;;;8.33;6.83;;;;;;;14.07;92.29;100230.81;4959782;28;20855;-78
2023/07/22 04:19:43;;;;;;;6.83;6.23;;;;;;;14.10;92.32;100229.84;4959707;28;20292;-79
2023/07/22 04:22:09;;;;;;;7.17;6.50;;;;;;;14.15;92.42;100238.38;4959419;28;20213;-78
2023/07/22 04:24:36;;;;;;;7.30;6.70;;;;;;;14.17;92.94;100231.34;4959632;28;20288;-79
2023/07/22 04:27:02;;;;;;;7.70;6.70;;;;;;;14.16;92.70;100232.25;4958982;28;20242;-80
2023/07/22 04:29:29;;;;;;;6.47;5.87;;;;;;;14.21;92.85;100224.19;4958236;28;20232;-78
2023/07/22 04:31:59;;;;;;;6.80;6.10;;;;;;;14.22;93.20;100218.88;4958590;28;20268;-79
2023/07/22 04:34:26;;;;;;;6.50;5.90;;;;;;;14.28;91.90;100244.06;4959554;28;20236;-80
2023/07/22 04:36:52;;;;;;;6.43;5.83;;;;;;;14.29;90.77;100266.75;4959541;28;20240;-80
2023/07/22 04:39:19;;;;;;;6.60;6.00;;;;;;;14.10;90.18;100285.81;4958618;28;20276;-80
2023/07/22 04:41:45;;;;;;;6.47;5.87;;;;;;;14.14;90.63;100283.94;4959839;28;20667;-80
2023/07/22 04:44:11;;;;;;;7.00;6.40;;;;;;;14.15;92.26;100255.91;4958828;28;20201;-80
2023/07/22 04:46:38;;;;;;;7.47;6.60;;;;;;;14.23;91.95;100254.75;4957308;28;20676;-78
2023/07/22 04:49:06;;;;;;;6.67;6.13;;;;;;;14.19;90.46;100276.78;4959577;28;20222;-80
2023/07/22 04:51:32;;;;;;;7.23;6.53;;;;;;;14.23;91.20;100281.00;4960154;28;20209;-80
2023/07/22 04:53:59;;;;;;;7.20;6.50;;;;;;;14.26;91.86;100264.25;4960115;28;20236;-80
2023/07/22 04:56:25;;;;;;;6.90;6.00;;;;;;;14.30;92.97;100242.22;4960355;28;20221;-80
2023/07/22 04:58:52;;;;;;;7.43;6.37;;;;;;;14.36;92.64;100243.78;4959826;28;20338;-80
2023/07/22 05:01:18;;;;;;;7.20;6.50;;;;;;;14.32;91.50;100258.78;4959012;28;20216;-79
2023/07/22 05:03:45;;;;;;;7.77;6.73;;;;;;;14.39;91.89;100256.78;4959149;28;20205;-78
2023/07/22 05:06:12;;;;;;;8.17;6.27;;;;;;;14.27;90.96;100279.97;4958827;28;20293;-79
2023/07/22 05:08:47;;;;;;;7.10;6.40;;;;;;;14.38;90.89;100289.22;5198887;27;20540;-76
2023/07/22 05:11:14;;;;;;;6.23;5.63;;;;;;;14.48;92.05;100274.81;5177028;27;20217;-76
2023/07/22 05:13:40;;;;;;;6.60;6.00;;;;;;;14.50;91.34;100278.25;5171328;27;20201;-76
2023/07/22 05:16:06;;;;;;;6.27;5.67;;;;;;;14.47;92.73;100267.88;5171144;27;20228;-76
2023/07/22 05:18:33;;;;;;;6.83;6.23;;;;;;;14.46;92.25;100259.09;5171092;27;20202;-77
2023/07/22 05:20:59;;;;;;;6.07;5.50;;;;;;;14.53;93.80;100230.84;5171347;27;20224;-77
2023/07/22 05:23:26;;;;;;;5.80;5.20;;;;;;;14.56;94.59;100200.97;5159161;22;21099;-80
2023/07/22 05:25:54;;;;;;;5.80;5.30;;;;;;;14.56;94.29;100211.50;5104877;28;20210;-77
2023/07/22 05:28:21;;;;;;;6.10;5.60;;;;;;;14.58;93.51;100223.66;5099016;28;20220;-77
2023/07/22 05:30:48;;;;;;;6.03;5.53;;;;;;;14.61;93.81;100228.81;5101147;28;20232;-77
2023/07/22 05:33:14;;;;;;;6.10;5.40;;;;;;;14.60;93.27;100237.59;5097914;28;20265;-78
2023/07/22 05:35:41;;;;;;;6.80;6.10;;;;;;;14.61;92.29;100254.25;5106127;28;20205;-78
2023/07/22 05:38:07;;;;;;;8.47;6.60;;;;;;;14.41;92.93;100261.06;5100800;28;20212;-77
2023/07/22 05:40:34;;;;;;;7.27;6.57;;;;;;;14.52;93.19;100263.28;5090095;28;20234;-78
2023/07/22 05:43:02;;;;;;;6.50;5.90;;;;;;;14.58;93.70;100251.72;5090979;28;20649;-78
2023/07/22 05:45:29;;;;;;;8.03;7.13;;;;;;;14.61;91.60;100276.09;5090161;28;20285;-78
2023/07/22 05:47:55;;;;;;;6.90;6.07;;;;;;;14.69;93.40;100258.28;5091395;28;20228;-77
2023/07/22 05:50:22;;;;;;;6.13;5.53;;;;;;;14.60;92.55;100278.78;5090066;28;20224;-78
2023/07/22 05:52:49;;;;;;;6.87;6.17;;;;;;;14.65;90.52;100305.75;5088827;28;20608;-77
2023/07/22 05:55:15;;;;;;;7.30;6.20;;;;;;;14.72;92.03;100293.22;5106655;28;20209;-78
2023/07/22 05:57:42;;;;;;;16.30;6.63;;;;;;;14.89;91.60;100306.56;5090629;28;20204;-78
2023/07/22 06:00:12;;;;;;;6.97;6.20;;;;;;;14.87;88.61;100339.94;5091652;28;20739;-79
2023/07/22 06:02:39;;;;;;;7.67;6.87;;;;;;;15.01;88.33;100373.56;5110155;28;20694;-78
2023/07/22 06:05:06;;;;;;;7.40;6.70;;;;;;;15.12;88.31;100384.50;5109629;28;20201;-78
2023/07/22 06:07:33;;;;;;;9.53;6.87;;;;;;;15.22;87.38;100399.03;5110263;28;20306;-77
2023/07/22 06:09:59;;;;;;;8.90;6.70;;;;;;;15.38;88.35;100390.53;5107751;28;20225;-77
2023/07/22 06:12:25;;;;;;;6.97;6.27;;;;;;;15.32;86.69;100430.22;5093776;28;20208;-78
2023/07/22 06:14:52;;;;;;;7.97;7.03;;;;;;;15.37;85.90;100444.91;5103545;28;20211;-78
2023/07/22 06:17:20;;;;;;;8.00;7.30;;;;;;;15.32;84.49;100470.56;5088041;28;20204;-77
2023/07/22 06:19:47;;;;;;;8.23;7.37;;;;;;;15.22;85.20;100488.44;5076063;28;20206;-77
2023/07/22 06:22:13;;;;;;;8.80;7.27;;;;;;;15.34;86.52;100463.47;5073962;28;20558;-77
2023/07/22 06:24:40;;;;;;;9.27;8.07;;;;;;;15.47;87.53;100440.16;5074001;28;20227;-77
2023/07/22 06:27:06;;;;;;;8.50;7.03;;;;;;;15.47;85.26;100469.94;5082016;28;20705;-78
2023/07/22 06:29:33;;;;;;;8.77;7.90;;;;;;;15.52;84.57;100476.78;5084270;28;20717;-77
2023/07/22 06:31:59;;;;;;;8.97;8.17;;;;;;;15.62;84.69;100489.56;5089195;28;20570;-76
2023/07/22 06:34:27;;;;;;;9.37;8.53;;;;;;;15.57;83.62;100511.69;5094251;28;20212;-75
2023/07/22 06:36:54;;;;;;;9.23;8.33;;;;;;;15.68;84.00;100506.88;5093051;28;20254;-76
2023/07/22 06:39:20;;;;;;;9.03;8.13;;;;;;;15.75;83.44;100515.41;5093678;28;20280;-76
2023/07/22 06:41:47;;;;;;;8.03;7.37;;;;;;;15.74;83.65;100519.84;5094246;28;20228;-75
2023/07/22 06:44:13;;;;;;;9.13;8.23;;;;;;;15.74;82.32;100548.78;5093449;28;20579;-75
2023/07/22 06:46:40;;;;;;;9.13;8.23;;;;;;;15.86;83.64;100532.50;5093385;28;20212;-75
2023/07/22 06:49:07;;;;;;;9.43;8.63;;;;;;;15.92;82.97;100534.03;5093951;28;20693;-75
2023/07/22 06:51:35;;;;;;;9.57;8.67;;;;;;;15.66;82.30;100559.56;5086252;28;20575;-75
2023/07/22 06:54:03;;;;;;;8.93;8.03;;;;;;;15.83;84.00;100519.44;5091248;28;20202;-76
2023/07/22 06:56:29;;;;;;;9.63;8.73;;;;;;;15.75;82.78;100534.69;5083673;28;20209;-75
2023/07/22 06:58:56;;;;;;;9.90;9.00;;;;;;;15.81;83.12;100536.22;5073565;28;20197;-75
2023/07/22 07:01:23;;;;;;;9.27;8.37;;;;;;;15.79;83.32;100523.13;5073731;28;20267;-75
2023/07/22 07:03:50;;;;;;;10.17;9.27;;;;;;;15.70;82.04;100552.41;5089863;28;20213;-75
2023/07/22 07:06:16;;;;;;;11.17;9.57;;;;;;;15.82;82.49;100553.75;5073039;28;20221;-75
2023/07/22 07:08:44;;;;;;;9.03;8.23;;;;;;;15.92;82.87;100546.34;5072803;28;20227;-75
2023/07/22 07:11:11;;;;;;;9.90;8.90;;;;;;;16.01;82.73;100538.91;5073634;28;20272;-75
2023/07/22 07:13:37;;;;;;;9.07;8.27;;;;;;;16.04;81.75;100564.28;5072939;28;20201;-75
2023/07/22 07:16:23;;;;;;;10.27;7.87;;;;;;;15.99;80.65;100575.00;5072449;28;20209;-75
2023/07/22 07:18:50;;;;;;;9.07;8.27;;;;;;;15.96;81.55;100577.75;5073669;28;20259;-76
2023/07/22 07:21:17;;;;;;;8.97;8.17;;;;;;;15.74;80.96;100588.25;5083960;28;20247;-75
2023/07/22 07:23:45;;;;;;;9.50;8.63;;;;;;;15.81;82.06;100583.59;5072468;28;20216;-75
2023/07/22 07:26:12;;;;;;;12.13;10.97;;;;;;;15.94;82.64;100549.78;5072845;28;20196;-75
2023/07/22 07:28:38;;;;;;;8.90;8.03;;;;;;;15.96;82.21;100558.47;5072271;28;20381;-75
2023/07/22 07:31:05;;;;;;;11.10;9.50;;;;;;;15.79;81.83;100565.22;5071674;28;20725;-75
2023/07/22 07:33:32;;;;;;;9.53;8.63;;;;;;;15.89;82.82;100529.72;5072614;28;20209;-75
2023/07/22 07:35:58;;;;;;;8.57;7.77;;;;;;;15.92;82.35;100551.63;5072784;28;20212;-75
2023/07/22 07:38:25;;;;;;;9.33;8.53;;;;;;;15.97;83.16;100542.59;5072043;28;20698;-74
2023/07/22 07:40:54;;;;;;;9.47;8.50;;;;;;;15.93;82.34;100540.16;5073255;28;20226;-74
2023/07/22 07:43:21;;;;;;;8.13;7.33;;;;;;;15.97;82.57;100549.66;5089354;28;20200;-75
2023/07/22 07:45:47;;;;;;;8.57;7.83;;;;;;;16.07;82.66;100543.09;5072209;28;20203;-75
2023/07/22 07:48:14;;;;;;;7.60;6.80;;;;;;;16.16;81.97;100555.06;5072328;28;20224;-75
2023/07/22 07:50:40;;;;;;;9.50;8.60;;;;;;;16.20;82.00;100561.91;5077888;28;20221;-74
2023/07/22 07:53:07;;;;;;;8.90;8.20;;;;;;;16.16;79.81;100600.66;5082283;28;20233;-74
2023/07/22 07:55:36;;;;;;;8.47;7.67;;;;;;;16.21;80.32;100618.91;5071720;28;20205;-74
2023/07/22 07:58:04;;;;;;;7.77;7.07;;;;;;;16.22;79.14;100624.13;5071144;28;20622;-74
2023/07/22 08:00:31;;;;;;;7.60;6.90;;;;;;;16.24;79.02;100659.16;5088645;28;20223;-75
2023/07/22 08:02:57;;;;;;;8.13;7.43;;;;;;;16.11;79.13;100673.72;5072153;28;20203;-75
2023/07/22 08:05:24;;;;;;;8.97;7.27;;;;;;;16.18;79.41;100658.56;5078382;28;20205;-75
2023/07/22 08:07:50;;;;;;;8.40;7.60;;;;;;;16.23;79.72;100654.84;5070889;28;20221;-76
2023/07/22 08:10:17;;;;;;;8.17;7.47;;;;;;;16.30;79.89;100651.97;5087400;28;20277;-76
2023/07/22 08:12:44;;;;;;;8.97;8.17;;;;;;;16.08;80.54;100631.72;5072549;28;20594;-75
2023/07/22 08:15:12;;;;;;;9.23;8.33;;;;;;;16.10;80.95;100608.81;5071641;28;20632;-75
2023/07/22 08:17:38;;;;;;;10.30;9.37;;;;;;;16.01;79.76;100623.19;5076209;28;20202;-75
2023/07/22 08:20:07;;;;;;;9.53;8.73;;;;;;;16.15;79.89;100627.06;5084079;28;20718;-75
2023/07/22 08:22:33;;;;;;;9.63;8.73;;;;;;;16.00;79.90;100639.06;5071231;28;20288;-75
2023/07/22 08:25:00;;;;;;;8.60;7.83;;;;;;;16.17;80.26;100622.59;5086664;28;20209;-76
2023/07/22 08:27:26;;;;;;;8.93;8.23;;;;;;;16.14;80.38;100626.22;5070542;28;20218;-75
2023/07/22 08:29:53;;;;;;;10.27;9.40;;;;;;;16.18;80.85;100617.28;5068824;28;20699;-75
2023/07/22 08:32:21;;;;;;;10.10;9.30;;;;;;;16.25;79.63;100624.03;5069502;28;20594;-75
2023/07/22 08:34:47;;;;;;;11.60;10.70;;;;;;;16.38;79.21;100642.81;5069565;28;20213;-75
2023/07/22 08:37:14;;;;;;;10.37;9.27;;;;;;;16.45;78.97;100648.69;5068893;28;20575;-76
2023/07/22 08:39:41;;;;;;;10.40;9.50;;;;;;;16.55;77.91;100668.50;5069504;28;20288;-77
2023/07/22 08:42:08;;;;;;;10.77;9.70;;;;;;;16.69;77.55;100691.69;5070089;28;20206;-75
2023/07/22 08:44:39;;;;;;;11.17;10.17;;;;;;;16.85;77.78;100699.84;5071033;28;20206;-75
2023/07/22 08:47:10;;;;;;;11.00;9.90;;;;;;;16.85;75.59;100747.31;5071210;28;20576;-74
2023/07/22 08:49:37;;;;;;;10.70;9.60;;;;;;;17.02;76.42;100742.19;5071050;28;20225;-74
2023/07/22 08:52:05;;;;;;;10.50;9.50;;;;;;;16.95;75.74;100768.91;5071078;28;20201;-74
2023/07/22 08:54:32;;;;;;;12.43;11.23;;;;;;;16.93;75.23;100787.41;5087905;28;20197;-74
2023/07/22 08:56:59;;;;;;;11.43;10.43;;;;;;;17.12;76.28;100762.94;5071390;28;20563;-74
2023/07/22 08:59:26;;;;;;;11.27;9.63;;;;;;;17.17;76.46;100760.97;5071359;28;20651;-74
2023/07/22 09:01:53;;;;;;;12.37;11.07;;;;;;;16.94;74.82;100781.22;5071205;28;20257;-75
2023/07/22 09:04:20;;;;;;;11.70;10.73;;;;;;;16.78;76.20;100772.16;5071363;28;20205;-75
2023/07/22 09:06:49;;;;;;;11.40;10.40;;;;;;;16.67;76.03;100748.88;5070756;28;20209;-74
2023/07/22 09:09:15;;;;;;;11.80;10.80;;;;;;;16.84;77.39;100703.41;5071184;28;20225;-75
2023/07/22 09:11:43;;;;;;;11.67;10.67;;;;;;;16.98;76.34;100726.56;5090378;28;20237;-76
2023/07/22 09:14:11;;;;;;;11.47;10.27;;;;;;;17.09;75.39;100737.53;5085178;28;20214;-75
2023/07/22 09:16:38;;;;;;;11.50;10.50;;;;;;;16.89;75.16;100754.19;5088277;28;20209;-75
2023/07/22 09:19:05;;;;;;;10.27;9.47;;;;;;;17.09;75.77;100753.38;5091442;28;20657;-75
2023/07/22 09:21:35;;;;;;;9.80;8.80;;;;;;;17.18;75.42;100752.97;5090969;28;20248;-76
2023/07/22 09:24:19;;;;;;;8.90;8.10;;;;;;;17.34;74.56;100747.91;5091195;28;20630;-75
2023/07/22 09:26:46;;;;;;;8.57;7.87;;;;;;;17.35;73.72;100786.59;5090991;28;20231;-75
2023/07/22 09:29:12;;;;;;;8.47;7.67;;;;;;;17.41;73.95;100793.38;5090727;28;20268;-75
2023/07/22 09:31:50;;;;;;;8.60;7.80;;;;;;;17.40;74.12;100803.09;5089853;28;20251;-75
2023/07/22 09:34:16;;;;;;;8.23;7.53;;;;;;;17.45;72.45;100816.94;5079408;28;20208;-75
2023/07/22 09:36:53;;;;;;;7.67;6.97;;;;;;;17.49;71.93;100838.78;5070998;28;20524;-75
2023/07/22 09:39:21;;;;;;;6.97;6.37;;;;;;;17.62;72.07;100847.94;5070923;28;20206;-75
2023/07/22 09:41:48;;;;;;;7.80;7.17;;;;;;;17.72;71.98;100853.69;5087917;28;20228;-75
2023/07/22 09:44:15;;;;;;;7.07;6.43;;;;;;;17.99;72.95;100840.25;5070744;28;20202;-75
2023/07/22 09:46:42;;;;;;;5.87;5.33;;;;;;;17.95;70.01;100894.13;5070620;28;20642;-75
2023/07/22 09:49:10;;;;;;;6.67;6.10;;;;;;;18.00;70.58;100908.03;5071358;28;20227;-75
2023/07/22 09:51:39;;;;;;;6.83;6.33;;;;;;;17.98;68.82;100939.78;5071254;28;20233;-76
2023/07/22 09:54:06;;;;;;;5.97;5.47;;;;;;;18.09;68.38;100971.00;5071810;28;20541;-77
2023/07/22 09:56:44;;;;;;;6.23;5.70;;;;;;;18.28;69.58;100946.47;5074949;28;20210;-75
2023/07/22 09:59:11;;;;;;;6.20;5.60;;;;;;;18.24;68.79;100957.16;5074550;28;20196;-75
2023/07/22 10:01:40;;;;;;;5.90;5.40;;;;;;;18.44;68.83;100952.81;5074542;28;20240;-75
2023/07/22 10:04:07;;;;;;;5.80;5.27;;;;;;;18.33;67.73;100982.31;5074661;28;20204;-75
2023/07/22 10:06:34;;;;;;;6.57;6.07;;;;;;;18.50;70.42;100936.69;5074626;28;20207;-76
2023/07/22 10:09:03;;;;;;;6.27;5.73;;;;;;;18.51;66.88;100956.88;5073757;28;20230;-76
2023/07/22 10:11:32;;;;;;;5.83;5.27;;;;;;;18.73;67.98;100963.88;5074460;28;20227;-75
2023/07/22 10:14:00;;;;;;;5.53;5.13;;;;;;;18.82;67.15;100995.25;5074237;28;20208;-75
2023/07/22 10:16:26;;;;;;;5.53;5.13;;;;;;;18.93;68.49;100979.75;5074006;28;20204;-76
2023/07/22 10:18:54;;;;;;;5.13;4.73;;;;;;;19.01;65.60;100997.94;5091376;28;20206;-76
2023/07/22 10:21:21;;;;;;;5.47;5.00;;;;;;;18.93;65.67;101040.63;5074035;28;20601;-76
2023/07/22 10:23:48;;;;;;;5.53;5.13;;;;;;;18.79;64.65;101057.09;5077784;28;20226;-75
2023/07/22 10:26:17;;;;;;;5.80;5.30;;;;;;;18.87;64.82;101055.88;5085739;28;20223;-75
2023/07/22 10:28:45;;;;;;;5.23;4.83;;;;;;;18.72;64.83;101070.59;5074007;28;20223;-75
2023/07/22 10:31:14;;;;;;;6.27;5.67;;;;;;;18.84;65.63;101048.94;5074059;28;20226;-76
2023/07/22 10:33:41;;;;;;;5.70;5.10;;;;;;;18.99;66.10;101034.19;5073879;28;20708;-76
2023/07/22 10:36:09;;;;;;;5.90;5.40;;;;;;;18.89;64.27;101060.19;5073521;28;20277;-76
2023/07/22 10:38:36;;;;;;;6.43;5.83;;;;;;;18.90;66.62;101029.31;5073038;28;20207;-76
2023/07/22 10:41:13;;;;;;;6.13;5.43;;;;;;;19.08;65.35;101022.31;5074117;28;20230;-76
2023/07/22 10:43:40;;;;;;;5.23;4.83;;;;;;;19.17;63.02;101066.91;5073173;28;20207;-76
2023/07/22 10:46:10;;;;;;;5.07;4.67;;;;;;;19.01;63.02;101093.19;5073264;28;20206;-77
2023/07/22 10:48:39;;;;;;;5.53;5.07;;;;;;;19.11;63.57;101096.25;5073796;28;20228;-76
2023/07/22 10:51:09;;;;;;;5.60;5.10;;;;;;;19.23;62.33;101114.28;5073426;28;20219;-76
2023/07/22 10:53:42;;;;;;;5.40;4.87;;;;;;;19.37;61.27;101140.13;5073145;28;20218;-76
2023/07/22 10:56:14;;;;;;;5.53;5.03;;;;;;;19.58;60.76;101156.84;5073684;28;20239;-76
2023/07/22 10:58:57;;;;;;;5.10;4.70;;;;;;;19.56;60.57;101183.41;5073492;28;20234;-76
2023/07/22 11:01:25;;;;;;;5.37;4.87;;;;;;;19.70;59.62;101195.16;5073392;28;20228;-76
2023/07/22 11:04:11;;;;;;;5.23;4.83;;;;;;;19.70;59.66;101197.81;5073275;28;20211;-76
2023/07/22 11:06:39;;;;;;;4.67;4.27;;;;;;;19.43;59.21;101241.34;5073344;28;20216;-76
2023/07/22 11:09:06;;;;;;;4.50;4.10;;;;;;;19.54;59.04;101221.47;5072866;28;20311;-76
2023/07/22 11:11:41;;;;;;;4.63;4.23;;;;;;;19.54;57.31;101263.84;5073637;28;20223;-75
2023/07/22 11:14:15;;;;;;;4.63;4.23;;;;;;;19.75;58.17;101264.72;5073987;28;20210;-77
2023/07/22 11:16:43;;;;;;;5.10;4.70;;;;;;;19.64;59.10;101255.44;5072859;28;20732;-77
2023/07/22 11:19:11;;;;;;;5.40;4.87;;;;;;;19.66;59.17;101242.09;5073766;28;20684;-77
2023/07/22 11:21:38;;;;;;;5.67;4.90;;;;;;;19.76;60.10;101211.69;5089906;28;20227;-77
2023/07/22 11:24:05;;;;;;;4.90;4.40;;;;;;;19.99;58.04;101215.91;5073384;28;20204;-77
2023/07/22 11:26:31;;;;;;;4.93;4.40;;;;;;;19.96;58.48;101239.94;5073716;28;20263;-77